sensor_id;sensor_type;location;lat;lon;timestamp;pressure;altitude;pressure_sealevel;temperature;humidity
49611;BME280;35515;48.766;9.176;2023-05-25T00:01:33;98748.94;;;12.31;55.36
49611;BME280;35515;48.766;9.176;2023-05-25T00:04:00;98742.84;;;12.29;55.40
49611;BME280;35515;48.766;9.176;2023-05-25T00:06:28;98743.28;;;12.26;55.90
49611;BME280;35515;48.766;9.176;2023-05-25T00:08:55;98748.72;;;12.26;55.82
49611;BME280;35515;48.766;9.176;2023-05-25T00:11:22;98740.34;;;12.27;55.97
49611;BME280;35515;48.766;9.176;2023-05-25T00:13:50;98740.34;;;12.34;55.65
49611;BME280;35515;48.766;9.176;2023-05-25T00:16:17;98747.03;;;12.31;55.89
49611;BME280;35515;48.766;9.176;2023-05-25T00:18:44;98744.97;;;12.27;55.91
49611;BME280;35515;48.766;9.176;2023-05-25T00:21:12;98751.00;;;12.29;55.90
49611;BME280;35515;48.766;9.176;2023-05-25T00:23:39;98744.97;;;12.27;55.71
49611;BME280;35515;48.766;9.176;2023-05-25T00:26:06;98744.31;;;12.18;56.01
49611;BME280;35515;48.766;9.176;2023-05-25T00:28:32;98734.09;;;12.13;56.64
49611;BME280;35515;48.766;9.176;2023-05-25T00:31:00;98749.38;;;12.14;56.03
49611;BME280;35515;48.766;9.176;2023-05-25T00:33:27;98736.19;;;12.11;56.44
49611;BME280;35515;48.766;9.176;2023-05-25T00:35:53;98736.81;;;12.13;56.96
49611;BME280;35515;48.766;9.176;2023-05-25T00:38:21;98735.78;;;12.08;56.95
49611;BME280;35515;48.766;9.176;2023-05-25T00:40:48;98746.66;;;12.08;56.79
49611;BME280;35515;48.766;9.176;2023-05-25T00:43:14;98736.59;;;12.08;58.10
49611;BME280;35515;48.766;9.176;2023-05-25T00:45:41;98732.66;;;12.04;57.93
49611;BME280;35515;48.766;9.176;2023-05-25T00:48:09;98737.25;;;12.10;57.50
49611;BME280;35515;48.766;9.176;2023-05-25T00:50:37;98735.97;;;12.13;57.37
49611;BME280;35515;48.766;9.176;2023-05-25T00:53:05;98734.09;;;12.13;57.45
49611;BME280;35515;48.766;9.176;2023-05-25T00:55:35;98735.78;;;12.21;56.65
49611;BME280;35515;48.766;9.176;2023-05-25T00:58:03;98733.06;;;12.21;56.22
49611;BME280;35515;48.766;9.176;2023-05-25T01:00:31;98729.50;;;12.20;56.79
49611;BME280;35515;48.766;9.176;2023-05-25T01:03:00;98721.31;;;12.34;56.26
49611;BME280;35515;48.766;9.176;2023-05-25T01:05:31;98722.59;;;12.11;57.15
49611;BME280;35515;48.766;9.176;2023-05-25T01:08:00;98727.00;;;12.12;57.01
49611;BME280;35515;48.766;9.176;2023-05-25T01:10:30;98719.50;;;12.08;56.96
49611;BME280;35515;48.766;9.176;2023-05-25T01:12:59;98725.75;;;12.15;57.13
49611;BME280;35515;48.766;9.176;2023-05-25T01:15:27;98724.91;;;12.14;57.29
49611;BME280;35515;48.766;9.176;2023-05-25T01:17:56;98724.72;;;12.09;57.51
49611;BME280;35515;48.766;9.176;2023-05-25T01:20:23;98734.09;;;12.00;58.56
49611;BME280;35515;48.766;9.176;2023-05-25T01:22:56;98717.38;;;11.96;58.41
49611;BME280;35515;48.766;9.176;2023-05-25T01:25:28;98723.25;;;12.00;58.04
49611;BME280;35515;48.766;9.176;2023-05-25T01:28:02;98725.75;;;11.95;58.08
49611;BME280;35515;48.766;9.176;2023-05-25T01:30:31;98720.75;;;12.05;57.19
49611;BME280;35515;48.766;9.176;2023-05-25T01:32:58;98711.53;;;12.06;57.08
49611;BME280;35515;48.766;9.176;2023-05-25T01:35:26;98711.13;;;12.02;58.14
49611;BME280;35515;48.766;9.176;2023-05-25T01:37:54;98714.88;;;11.95;57.73
49611;BME280;35515;48.766;9.176;2023-05-25T01:40:21;98714.47;;;11.98;57.74
49611;BME280;35515;48.766;9.176;2023-05-25T01:42:47;98727.78;;;11.93;57.95
49611;BME280;35515;48.766;9.176;2023-05-25T01:45:14;98729.06;;;11.97;58.55
49611;BME280;35515;48.766;9.176;2023-05-25T01:47:45;98724.72;;;11.96;58.28
49611;BME280;35515;48.766;9.176;2023-05-25T01:50:18;98731.19;;;11.95;58.09
49611;BME280;35515;48.766;9.176;2023-05-25T01:52:50;98739.53;;;12.00;57.81
49611;BME280;35515;48.766;9.176;2023-05-25T01:55:24;98729.25;;;11.88;58.54
49611;BME280;35515;48.766;9.176;2023-05-25T01:57:52;98728.44;;;11.81;59.21
49611;BME280;35515;48.766;9.176;2023-05-25T02:00:23;98729.03;;;11.83;59.04
49611;BME280;35515;48.766;9.176;2023-05-25T02:02:51;98729.22;;;11.62;59.79
49611;BME280;35515;48.766;9.176;2023-05-25T02:05:19;98734.88;;;11.67;60.38
49611;BME280;35515;48.766;9.176;2023-05-25T02:07:45;98732.78;;;11.56;60.39
49611;BME280;35515;48.766;9.176;2023-05-25T02:10:12;98726.28;;;11.57;61.36
49611;BME280;35515;48.766;9.176;2023-05-25T02:12:40;98725.03;;;11.52;61.00
49611;BME280;35515;48.766;9.176;2023-05-25T02:15:07;98713.56;;;11.50;61.67
49611;BME280;35515;48.766;9.176;2023-05-25T02:17:34;98717.53;;;11.48;61.92
49611;BME280;35515;48.766;9.176;2023-05-25T02:20:01;98711.03;;;11.42;62.27
49611;BME280;35515;48.766;9.176;2023-05-25T02:22:28;98713.53;;;11.37;62.32
49611;BME280;35515;48.766;9.176;2023-05-25T02:24:55;98706.44;;;11.36;62.43
49611;BME280;35515;48.766;9.176;2023-05-25T02:27:22;98717.09;;;11.37;62.35
49611;BME280;35515;48.766;9.176;2023-05-25T02:29:50;98714.34;;;11.31;62.67
49611;BME280;35515;48.766;9.176;2023-05-25T02:32:17;98715.34;;;11.16;63.26
49611;BME280;35515;48.766;9.176;2023-05-25T02:34:43;98703.06;;;11.20;63.55
49611;BME280;35515;48.766;9.176;2023-05-25T02:37:11;98704.09;;;11.19;63.24
49611;BME280;35515;48.766;9.176;2023-05-25T02:39:38;98701.78;;;11.16;63.07
49611;BME280;35515;48.766;9.176;2023-05-25T02:42:04;98700.53;;;11.12;63.40
49611;BME280;35515;48.766;9.176;2023-05-25T02:44:31;98705.94;;;11.12;63.37
49611;BME280;35515;48.766;9.176;2023-05-25T02:46:59;98710.91;;;11.02;63.89
49611;BME280;35515;48.766;9.176;2023-05-25T02:49:25;98703.88;;;11.08;63.19
49611;BME280;35515;48.766;9.176;2023-05-25T02:51:52;98706.75;;;11.06;63.41
49611;BME280;35515;48.766;9.176;2023-05-25T02:54:18;98714.06;;;11.06;63.65
49611;BME280;35515;48.766;9.176;2023-05-25T02:56:45;98708.19;;;11.02;63.73
49611;BME280;35515;48.766;9.176;2023-05-25T02:59:11;98719.28;;;11.07;63.87
49611;BME280;35515;48.766;9.176;2023-05-25T03:01:38;98718.84;;;11.10;63.83
49611;BME280;35515;48.766;9.176;2023-05-25T03:04:06;98727.59;;;10.99;64.50
49611;BME280;35515;48.766;9.176;2023-05-25T03:06:32;98728.63;;;10.98;64.77
49611;BME280;35515;48.766;9.176;2023-05-25T03:09:00;98735.97;;;11.04;63.80
49611;BME280;35515;48.766;9.176;2023-05-25T03:11:29;98730.94;;;10.94;64.27
49611;BME280;35515;48.766;9.176;2023-05-25T03:13:55;98728.56;;;10.84;64.43
49611;BME280;35515;48.766;9.176;2023-05-25T03:16:22;98723.72;;;10.73;65.23
49611;BME280;35515;48.766;9.176;2023-05-25T03:18:48;98727.72;;;10.77;65.10
49611;BME280;35515;48.766;9.176;2023-05-25T03:21:16;98731.22;;;10.71;65.53
49611;BME280;35515;48.766;9.176;2023-05-25T03:23:44;98726.03;;;10.76;65.72
49611;BME280;35515;48.766;9.176;2023-05-25T03:26:10;98736.19;;;10.67;65.60
49611;BME280;35515;48.766;9.176;2023-05-25T03:28:37;98724.53;;;10.67;65.73
49611;BME280;35515;48.766;9.176;2023-05-25T03:31:03;98730.34;;;10.64;66.63
49611;BME280;35515;48.766;9.176;2023-05-25T03:33:30;98732.81;;;10.59;66.77
49611;BME280;35515;48.766;9.176;2023-05-25T03:35:57;98730.94;;;10.59;66.96
49611;BME280;35515;48.766;9.176;2023-05-25T03:38:25;98740.13;;;10.65;66.77
49611;BME280;35515;48.766;9.176;2023-05-25T03:40:51;98730.72;;;10.61;66.53
49611;BME280;35515;48.766;9.176;2023-05-25T03:43:18;98731.41;;;10.69;66.17
49611;BME280;35515;48.766;9.176;2023-05-25T03:45:44;98733.31;;;10.69;66.39
49611;BME280;35515;48.766;9.176;2023-05-25T03:48:11;98729.06;;;10.60;66.54
49611;BME280;35515;48.766;9.176;2023-05-25T03:50:37;98733.06;;;10.64;66.78
49611;BME280;35515;48.766;9.176;2023-05-25T03:53:05;98731.34;;;10.56;66.71
49611;BME280;35515;48.766;9.176;2023-05-25T03:55:32;98736.03;;;10.76;65.68
49611;BME280;35515;48.766;9.176;2023-05-25T03:57:59;98744.06;;;10.56;66.71
49611;BME280;35515;48.766;9.176;2023-05-25T04:00:25;98746.53;;;10.50;67.24
49611;BME280;35515;48.766;9.176;2023-05-25T04:02:52;98747.75;;;10.48;67.70
49611;BME280;35515;48.766;9.176;2023-05-25T04:05:18;98754.91;;;10.56;67.64
49611;BME280;35515;48.766;9.176;2023-05-25T04:07:45;98756.75;;;10.55;67.52
49611;BME280;35515;48.766;9.176;2023-05-25T04:10:12;98756.13;;;10.53;67.85
49611;BME280;35515;48.766;9.176;2023-05-25T04:12:40;98755.03;;;10.47;67.81
49611;BME280;35515;48.766;9.176;2023-05-25T04:15:07;98762.38;;;10.53;68.76
49611;BME280;35515;48.766;9.176;2023-05-25T04:17:33;98757.41;;;10.57;68.30
49611;BME280;35515;48.766;9.176;2023-05-25T04:20:00;98761.13;;;10.56;68.39
49611;BME280;35515;48.766;9.176;2023-05-25T04:22:28;98753.84;;;10.57;68.55
49611;BME280;35515;48.766;9.176;2023-05-25T04:24:55;98768.25;;;10.57;68.22
49611;BME280;35515;48.766;9.176;2023-05-25T04:27:21;98766.56;;;10.56;68.26
49611;BME280;35515;48.766;9.176;2023-05-25T04:29:49;98752.78;;;10.51;68.57
49611;BME280;35515;48.766;9.176;2023-05-25T04:32:18;98757.44;;;10.64;67.72
49611;BME280;35515;48.766;9.176;2023-05-25T04:34:45;98757.25;;;10.65;67.34
49611;BME280;35515;48.766;9.176;2023-05-25T04:37:12;98767.47;;;10.70;67.38
49611;BME280;35515;48.766;9.176;2023-05-25T04:39:39;98756.66;;;10.77;67.42
49611;BME280;35515;48.766;9.176;2023-05-25T04:42:05;98756.63;;;10.70;66.25
49611;BME280;35515;48.766;9.176;2023-05-25T04:44:32;98767.16;;;10.86;66.41
49611;BME280;35515;48.766;9.176;2023-05-25T04:47:00;98764.25;;;10.88;66.78
49611;BME280;35515;48.766;9.176;2023-05-25T04:49:26;98772.13;;;10.83;65.95
49611;BME280;35515;48.766;9.176;2023-05-25T04:51:53;98770.13;;;10.92;65.48
49611;BME280;35515;48.766;9.176;2023-05-25T04:54:20;98765.97;;;10.96;65.10
49611;BME280;35515;48.766;9.176;2023-05-25T04:56:46;98774.28;;;10.94;64.81
49611;BME280;35515;48.766;9.176;2023-05-25T04:59:13;98774.88;;;10.90;65.85
49611;BME280;35515;48.766;9.176;2023-05-25T05:01:39;98775.53;;;10.92;65.35
49611;BME280;35515;48.766;9.176;2023-05-25T05:04:07;98770.13;;;10.92;65.03
49611;BME280;35515;48.766;9.176;2023-05-25T05:06:34;98776.38;;;10.99;65.15
49611;BME280;35515;48.766;9.176;2023-05-25T05:09:01;98780.13;;;10.98;65.20
49611;BME280;35515;48.766;9.176;2023-05-25T05:11:28;98774.31;;;11.01;64.63
49611;BME280;35515;48.766;9.176;2023-05-25T05:13:55;98778.34;;;11.12;64.04
49611;BME280;35515;48.766;9.176;2023-05-25T05:16:23;98776.91;;;11.23;63.63
49611;BME280;35515;48.766;9.176;2023-05-25T05:18:49;98782.34;;;11.23;63.45
49611;BME280;35515;48.766;9.176;2023-05-25T05:21:17;98783.78;;;11.18;64.04
49611;BME280;35515;48.766;9.176;2023-05-25T05:23:44;98798.63;;;11.23;64.18
49611;BME280;35515;48.766;9.176;2023-05-25T05:26:11;98791.50;;;11.21;63.73
49611;BME280;35515;48.766;9.176;2023-05-25T05:28:39;98793.81;;;11.25;63.38
49611;BME280;35515;48.766;9.176;2023-05-25T05:31:05;98803.47;;;11.41;62.87
49611;BME280;35515;48.766;9.176;2023-05-25T05:33:32;98807.03;;;11.41;63.17
49611;BME280;35515;48.766;9.176;2023-05-25T05:35:59;98807.41;;;11.38;63.00
49611;BME280;35515;48.766;9.176;2023-05-25T05:38:28;98809.69;;;11.28;63.79
49611;BME280;35515;48.766;9.176;2023-05-25T05:40:54;98804.44;;;11.26;64.15
49611;BME280;35515;48.766;9.176;2023-05-25T05:43:21;98808.50;;;11.44;63.41
49611;BME280;35515;48.766;9.176;2023-05-25T05:45:47;98813.53;;;11.53;62.80
49611;BME280;35515;48.766;9.176;2023-05-25T05:48:14;98806.81;;;11.43;63.37
49611;BME280;35515;48.766;9.176;2023-05-25T05:50:41;98816.19;;;11.40;64.42
49611;BME280;35515;48.766;9.176;2023-05-25T05:53:07;98809.06;;;11.32;63.83
49611;BME280;35515;48.766;9.176;2023-05-25T05:55:36;98818.97;;;11.53;63.50
49611;BME280;35515;48.766;9.176;2023-05-25T05:58:03;98823.78;;;11.58;62.77
49611;BME280;35515;48.766;9.176;2023-05-25T06:00:29;98826.69;;;11.57;63.14
49611;BME280;35515;48.766;9.176;2023-05-25T06:02:56;98844.25;;;11.67;62.75
49611;BME280;35515;48.766;9.176;2023-05-25T06:05:22;98837.09;;;11.46;63.94
49611;BME280;35515;48.766;9.176;2023-05-25T06:07:49;98847.78;;;11.54;64.03
49611;BME280;35515;48.766;9.176;2023-05-25T06:10:16;98837.53;;;11.57;63.46
49611;BME280;35515;48.766;9.176;2023-05-25T06:12:43;98830.03;;;11.52;63.22
49611;BME280;35515;48.766;9.176;2023-05-25T06:15:10;98833.34;;;11.47;64.08
49611;BME280;35515;48.766;9.176;2023-05-25T06:17:37;98847.63;;;11.76;63.08
49611;BME280;35515;48.766;9.176;2023-05-25T06:20:04;98843.84;;;11.64;63.76
49611;BME280;35515;48.766;9.176;2023-05-25T06:22:31;98851.38;;;11.75;63.36
49611;BME280;35515;48.766;9.176;2023-05-25T06:24:58;98851.19;;;11.83;63.19
49611;BME280;35515;48.766;9.176;2023-05-25T06:27:25;98848.28;;;11.78;63.39
49611;BME280;35515;48.766;9.176;2023-05-25T06:29:53;98840.28;;;11.63;64.31
49611;BME280;35515;48.766;9.176;2023-05-25T06:32:19;98843.03;;;11.77;63.72
49611;BME280;35515;48.766;9.176;2023-05-25T06:34:46;98840.97;;;11.79;63.87
49611;BME280;35515;48.766;9.176;2023-05-25T06:37:13;98838.91;;;11.87;63.57
49611;BME280;35515;48.766;9.176;2023-05-25T06:39:39;98846.78;;;11.69;64.46
49611;BME280;35515;48.766;9.176;2023-05-25T06:42:07;98853.06;;;11.76;64.14
49611;BME280;35515;48.766;9.176;2023-05-25T06:44:34;98852.97;;;12.11;63.38
49611;BME280;35515;48.766;9.176;2023-05-25T06:47:02;98856.91;;;12.02;63.63
49611;BME280;35515;48.766;9.176;2023-05-25T06:49:29;98842.94;;;12.05;64.09
49611;BME280;35515;48.766;9.176;2023-05-25T06:51:55;98843.34;;;12.15;63.51
49611;BME280;35515;48.766;9.176;2023-05-25T06:54:22;98840.44;;;12.10;64.07
49611;BME280;35515;48.766;9.176;2023-05-25T06:56:49;98856.13;;;12.21;64.03
49611;BME280;35515;48.766;9.176;2023-05-25T06:59:16;98852.81;;;12.33;63.64
49611;BME280;35515;48.766;9.176;2023-05-25T07:01:44;98849.88;;;12.28;64.10
49611;BME280;35515;48.766;9.176;2023-05-25T07:04:12;98855.91;;;12.30;64.00
49611;BME280;35515;48.766;9.176;2023-05-25T07:06:39;98867.00;;;12.48;63.51
49611;BME280;35515;48.766;9.176;2023-05-25T07:09:05;98862.00;;;12.32;64.61
49611;BME280;35515;48.766;9.176;2023-05-25T07:11:32;98865.75;;;12.51;64.33
49611;BME280;35515;48.766;9.176;2023-05-25T07:13:58;98864.50;;;12.53;64.35
49611;BME280;35515;48.766;9.176;2023-05-25T07:16:25;98862.00;;;12.59;64.50
49611;BME280;35515;48.766;9.176;2023-05-25T07:18:52;98867.66;;;12.64;63.94
49611;BME280;35515;48.766;9.176;2023-05-25T07:21:20;98869.94;;;12.60;64.12
49611;BME280;35515;48.766;9.176;2023-05-25T07:23:46;98871.19;;;12.58;64.69
49611;BME280;35515;48.766;9.176;2023-05-25T07:26:13;98873.47;;;12.81;63.98
49611;BME280;35515;48.766;9.176;2023-05-25T07:28:39;98874.13;;;12.76;64.19
49611;BME280;35515;48.766;9.176;2023-05-25T07:31:07;98876.84;;;12.76;64.61
49611;BME280;35515;48.766;9.176;2023-05-25T07:33:33;98877.47;;;12.92;63.79
49611;BME280;35515;48.766;9.176;2023-05-25T07:36:00;98867.19;;;12.94;63.66
49611;BME280;35515;48.766;9.176;2023-05-25T07:38:28;98872.03;;;12.92;63.99
49611;BME280;35515;48.766;9.176;2023-05-25T07:40:54;98871.78;;;13.07;63.66
49611;BME280;35515;48.766;9.176;2023-05-25T07:43:21;98870.94;;;12.93;64.30
49611;BME280;35515;48.766;9.176;2023-05-25T07:45:47;98880.34;;;12.97;64.47
49611;BME280;35515;48.766;9.176;2023-05-25T07:48:14;98875.34;;;12.94;64.67
49611;BME280;35515;48.766;9.176;2023-05-25T07:50:40;98875.31;;;13.14;63.83
49611;BME280;35515;48.766;9.176;2023-05-25T07:53:07;98871.13;;;13.11;64.16
49611;BME280;35515;48.766;9.176;2023-05-25T07:55:35;98870.06;;;13.26;63.69
49611;BME280;35515;48.766;9.176;2023-05-25T07:58:01;98879.25;;;13.31;63.82
49611;BME280;35515;48.766;9.176;2023-05-25T08:00:28;98872.16;;;13.24;63.97
49611;BME280;35515;48.766;9.176;2023-05-25T08:02:55;98866.06;;;13.28;64.34
49611;BME280;35515;48.766;9.176;2023-05-25T08:05:21;98864.34;;;13.47;63.61
49611;BME280;35515;48.766;9.176;2023-05-25T08:07:48;98864.97;;;13.56;63.49
49611;BME280;35515;48.766;9.176;2023-05-25T08:10:14;98860.34;;;13.57;63.19
49611;BME280;35515;48.766;9.176;2023-05-25T08:12:42;98858.44;;;13.64;63.59
49611;BME280;35515;48.766;9.176;2023-05-25T08:15:09;98858.00;;;13.67;63.21
49611;BME280;35515;48.766;9.176;2023-05-25T08:17:37;98856.94;;;13.75;62.99
49611;BME280;35515;48.766;9.176;2023-05-25T08:20:05;98854.03;;;13.63;63.84
49611;BME280;35515;48.766;9.176;2023-05-25T08:22:32;98857.56;;;13.70;63.62
49611;BME280;35515;48.766;9.176;2023-05-25T08:24:59;98850.41;;;13.82;63.45
49611;BME280;35515;48.766;9.176;2023-05-25T08:27:25;98854.09;;;13.95;62.87
49611;BME280;35515;48.766;9.176;2023-05-25T08:29:53;98867.75;;;13.88;63.80
49611;BME280;35515;48.766;9.176;2023-05-25T08:32:20;98857.63;;;13.95;63.50
49611;BME280;35515;48.766;9.176;2023-05-25T08:34:46;98870.72;;;14.18;62.75
49611;BME280;35515;48.766;9.176;2023-05-25T08:37:13;98872.31;;;14.01;63.39
49611;BME280;35515;48.766;9.176;2023-05-25T08:39:39;98872.41;;;14.19;62.86
49611;BME280;35515;48.766;9.176;2023-05-25T08:42:06;98872.41;;;14.19;63.11
49611;BME280;35515;48.766;9.176;2023-05-25T08:44:34;98871.22;;;14.34;62.60
49611;BME280;35515;48.766;9.176;2023-05-25T08:47:04;98873.53;;;14.37;62.65
49611;BME280;35515;48.766;9.176;2023-05-25T08:49:33;98875.81;;;14.40;62.61
49611;BME280;35515;48.766;9.176;2023-05-25T08:52:03;98869.84;;;14.50;62.46
49611;BME280;35515;48.766;9.176;2023-05-25T08:54:33;98869.91;;;14.43;63.08
49611;BME280;35515;48.766;9.176;2023-05-25T08:57:04;98866.25;;;14.56;62.70
49611;BME280;35515;48.766;9.176;2023-05-25T08:59:39;98865.84;;;14.52;62.66
49611;BME280;35515;48.766;9.176;2023-05-25T09:02:20;98866.47;;;14.54;62.80
49611;BME280;35515;48.766;9.176;2023-05-25T09:04:47;98853.97;;;14.72;62.86
49611;BME280;35515;48.766;9.176;2023-05-25T09:07:13;98861.13;;;14.73;62.63
49611;BME280;35515;48.766;9.176;2023-05-25T09:09:40;98863.94;;;14.85;62.27
49611;BME280;35515;48.766;9.176;2023-05-25T09:12:08;98859.47;;;14.91;62.44
49611;BME280;35515;48.766;9.176;2023-05-25T09:14:35;98866.28;;;14.81;62.46
49611;BME280;35515;48.766;9.176;2023-05-25T09:17:04;98870.56;;;14.96;62.34
49611;BME280;35515;48.766;9.176;2023-05-25T09:19:34;98856.91;;;14.96;62.72
49611;BME280;35515;48.766;9.176;2023-05-25T09:22:00;98851.97;;;15.04;62.21
49611;BME280;35515;48.766;9.176;2023-05-25T09:24:27;98865.13;;;15.14;62.60
49611;BME280;35515;48.766;9.176;2023-05-25T09:26:54;98868.06;;;15.31;62.06
49611;BME280;35515;48.766;9.176;2023-05-25T09:29:21;98857.00;;;15.63;60.62
49611;BME280;35515;48.766;9.176;2023-05-25T09:31:47;98865.56;;;15.67;60.47
49611;BME280;35515;48.766;9.176;2023-05-25T09:34:14;98866.47;;;15.61;60.77
49611;BME280;35515;48.766;9.176;2023-05-25T09:36:42;98864.66;;;15.73;60.44
49611;BME280;35515;48.766;9.176;2023-05-25T09:39:09;98867.16;;;15.75;60.23
49611;BME280;35515;48.766;9.176;2023-05-25T09:41:36;98867.84;;;15.88;59.76
49611;BME280;35515;48.766;9.176;2023-05-25T09:44:03;98870.28;;;15.78;60.25
49611;BME280;35515;48.766;9.176;2023-05-25T09:46:30;98872.94;;;15.85;60.33
49611;BME280;35515;48.766;9.176;2023-05-25T09:49:01;98875.72;;;15.97;59.43
49611;BME280;35515;48.766;9.176;2023-05-25T09:51:27;98876.47;;;16.04;59.57
49611;BME280;35515;48.766;9.176;2023-05-25T09:53:56;98873.78;;;15.85;60.15
49611;BME280;35515;48.766;9.176;2023-05-25T09:56:23;98873.59;;;15.99;59.86
49611;BME280;35515;48.766;9.176;2023-05-25T09:58:50;98871.47;;;16.01;59.85
49611;BME280;35515;48.766;9.176;2023-05-25T10:01:17;98865.25;;;15.94;59.91
49611;BME280;35515;48.766;9.176;2023-05-25T10:03:44;98863.28;;;16.01;60.25
49611;BME280;35515;48.766;9.176;2023-05-25T10:06:12;98873.69;;;16.23;59.58
49611;BME280;35515;48.766;9.176;2023-05-25T10:08:41;98870.31;;;16.20;59.39
49611;BME280;35515;48.766;9.176;2023-05-25T10:11:11;98863.53;;;16.53;58.69
49611;BME280;35515;48.766;9.176;2023-05-25T10:13:39;98870.81;;;16.71;57.94
49611;BME280;35515;48.766;9.176;2023-05-25T10:16:08;98868.41;;;16.51;58.53
49611;BME280;35515;48.766;9.176;2023-05-25T10:18:38;98873.78;;;16.58;58.31
49611;BME280;35515;48.766;9.176;2023-05-25T10:21:07;98872.09;;;16.57;58.62
49611;BME280;35515;48.766;9.176;2023-05-25T10:23:38;98875.22;;;16.61;58.60
49611;BME280;35515;48.766;9.176;2023-05-25T10:26:07;98867.59;;;16.63;58.72
49611;BME280;35515;48.766;9.176;2023-05-25T10:28:36;98864.25;;;16.84;58.18
49611;BME280;35515;48.766;9.176;2023-05-25T10:31:05;98875.56;;;16.76;58.26
49611;BME280;35515;48.766;9.176;2023-05-25T10:33:32;98871.91;;;16.82;57.74
49611;BME280;35515;48.766;9.176;2023-05-25T10:35:59;98874.03;;;16.80;58.12
49611;BME280;35515;48.766;9.176;2023-05-25T10:38:26;98871.41;;;16.85;57.69
49611;BME280;35515;48.766;9.176;2023-05-25T10:40:57;98863.72;;;17.06;57.23
49611;BME280;35515;48.766;9.176;2023-05-25T10:43:25;98857.50;;;17.23;56.85
49611;BME280;35515;48.766;9.176;2023-05-25T10:45:54;98865.38;;;17.19;57.14
49611;BME280;35515;48.766;9.176;2023-05-25T10:48:21;98853.59;;;17.18;57.41
49611;BME280;35515;48.766;9.176;2023-05-25T10:50:49;98853.97;;;17.10;57.49
49611;BME280;35515;48.766;9.176;2023-05-25T10:53:19;98850.00;;;17.18;57.46
49611;BME280;35515;48.766;9.176;2023-05-25T10:55:49;98860.69;;;17.31;57.04
49611;BME280;35515;48.766;9.176;2023-05-25T10:58:27;98859.06;;;17.30;56.96
49611;BME280;35515;48.766;9.176;2023-05-25T11:00:59;98862.25;;;17.27;57.05
49611;BME280;35515;48.766;9.176;2023-05-25T11:03:48;98870.94;;;17.48;56.48
49611;BME280;35515;48.766;9.176;2023-05-25T11:06:16;98859.53;;;17.27;56.91
49611;BME280;35515;48.766;9.176;2023-05-25T11:08:50;98860.69;;;17.43;56.89
49611;BME280;35515;48.766;9.176;2023-05-25T11:11:19;98866.38;;;17.53;56.88
49611;BME280;35515;48.766;9.176;2023-05-25T11:13:46;98855.88;;;17.74;56.05
49611;BME280;35515;48.766;9.176;2023-05-25T11:16:16;98847.81;;;17.55;56.87
49611;BME280;35515;48.766;9.176;2023-05-25T11:18:45;98840.88;;;17.65;56.70
49611;BME280;35515;48.766;9.176;2023-05-25T11:21:15;98851.44;;;17.73;56.62
49611;BME280;35515;48.766;9.176;2023-05-25T11:23:56;98852.13;;;17.80;56.09
49611;BME280;35515;48.766;9.176;2023-05-25T11:26:24;98847.25;;;17.82;55.97
49611;BME280;35515;48.766;9.176;2023-05-25T11:28:52;98842.75;;;17.76;55.86
49611;BME280;35515;48.766;9.176;2023-05-25T11:31:21;98846.44;;;17.70;56.33
49611;BME280;35515;48.766;9.176;2023-05-25T11:33:54;98838.63;;;17.91;55.70
49611;BME280;35515;48.766;9.176;2023-05-25T11:36:23;98844.59;;;17.99;55.46
49611;BME280;35515;48.766;9.176;2023-05-25T11:38:51;98832.22;;;17.97;55.31
49611;BME280;35515;48.766;9.176;2023-05-25T11:41:19;98847.00;;;17.96;55.74
49611;BME280;35515;48.766;9.176;2023-05-25T11:43:46;98843.19;;;18.14;55.18
49611;BME280;35515;48.766;9.176;2023-05-25T11:46:14;98850.19;;;18.21;54.74
49611;BME280;35515;48.766;9.176;2023-05-25T11:48:44;98842.56;;;18.24;54.58
49611;BME280;35515;48.766;9.176;2023-05-25T11:51:11;98835.06;;;18.19;54.48
49611;BME280;35515;48.766;9.176;2023-05-25T11:53:42;98840.41;;;18.26;54.07
49611;BME280;35515;48.766;9.176;2023-05-25T11:56:11;98837.72;;;18.14;54.29
49611;BME280;35515;48.766;9.176;2023-05-25T11:58:38;98843.84;;;18.04;54.90
49611;BME280;35515;48.766;9.176;2023-05-25T12:01:12;98841.78;;;18.11;54.60
49611;BME280;35515;48.766;9.176;2023-05-25T12:03:39;98837.56;;;18.20;54.56
49611;BME280;35515;48.766;9.176;2023-05-25T12:06:07;98840.28;;;18.20;54.70
49611;BME280;35515;48.766;9.176;2023-05-25T12:08:34;98834.44;;;18.29;54.66
49611;BME280;35515;48.766;9.176;2023-05-25T12:11:01;98829.44;;;18.26;54.65
49611;BME280;35515;48.766;9.176;2023-05-25T12:13:29;98842.19;;;18.49;54.27
49611;BME280;35515;48.766;9.176;2023-05-25T12:15:56;98832.63;;;18.51;53.07
49611;BME280;35515;48.766;9.176;2023-05-25T12:18:24;98830.44;;;18.53;53.34
49611;BME280;35515;48.766;9.176;2023-05-25T12:20:51;98832.03;;;18.49;53.66
49611;BME280;35515;48.766;9.176;2023-05-25T12:23:19;98828.59;;;18.59;53.09
49611;BME280;35515;48.766;9.176;2023-05-25T12:25:46;98831.28;;;18.71;52.59
49611;BME280;35515;48.766;9.176;2023-05-25T12:28:14;98833.03;;;18.77;52.92
49611;BME280;35515;48.766;9.176;2023-05-25T12:30:41;98827.09;;;18.68;52.84
49611;BME280;35515;48.766;9.176;2023-05-25T12:33:07;98830.09;;;18.67;52.59
49611;BME280;35515;48.766;9.176;2023-05-25T12:35:44;98829.28;;;18.83;52.65
49611;BME280;35515;48.766;9.176;2023-05-25T12:38:12;98829.84;;;18.68;52.58
49611;BME280;35515;48.766;9.176;2023-05-25T12:40:42;98826.19;;;18.80;52.28
49611;BME280;35515;48.766;9.176;2023-05-25T12:43:09;98825.78;;;18.88;52.40
49611;BME280;35515;48.766;9.176;2023-05-25T12:45:38;98838.28;;;18.96;52.21
49611;BME280;35515;48.766;9.176;2023-05-25T12:48:05;98842.63;;;18.92;52.02
49611;BME280;35515;48.766;9.176;2023-05-25T12:50:32;98828.50;;;18.88;51.87
49611;BME280;35515;48.766;9.176;2023-05-25T12:53:00;98831.88;;;18.90;52.13
49611;BME280;35515;48.766;9.176;2023-05-25T12:55:27;98843.78;;;18.96;51.93
49611;BME280;35515;48.766;9.176;2023-05-25T12:57:56;98822.47;;;18.86;52.26
49611;BME280;35515;48.766;9.176;2023-05-25T13:00:24;98829.97;;;18.91;52.42
49611;BME280;35515;48.766;9.176;2023-05-25T13:02:52;98831.94;;;18.78;52.48